sensor_id;sensor_type;location;lat;lon;timestamp;pressure;altitude;pressure_sealevel;temperature;humidity
76627;BME280;65519;53.230;10.390;2024-02-26T00:00:37;99989.41;;;3.08;100.00
76627;BME280;65519;53.230;10.390;2024-02-26T00:03:04;100010.34;;;3.17;100.00
76627;BME280;65519;53.230;10.390;2024-02-26T00:05:29;100003.56;;;3.15;100.00
76627;BME280;65519;53.230;10.390;2024-02-26T00:07:56;99993.13;;;3.18;100.00
76627;BME280;65519;53.230;10.390;2024-02-26T00:10:22;99991.97;;;3.14;100.00
76627;BME280;65519;53.230;10.390;2024-02-26T00:12:47;99988.25;;;3.04;100.00
76627;BME280;65519;53.230;10.390;2024-02-26T00:15:13;99997.03;;;3.11;100.00
76627;BME280;65519;53.230;10.390;2024-02-26T00:17:39;99997.63;;;3.01;100.00
76627;BME280;65519;53.230;10.390;2024-02-26T00:20:06;99997.13;;;3.04;100.00
76627;BME280;65519;53.230;10.390;2024-02-26T00:22:34;99997.03;;;3.11;100.00
76627;BME280;65519;53.230;10.390;2024-02-26T00:25:00;99985.91;;;3.07;100.00
76627;BME280;65519;53.230;10.390;2024-02-26T00:27:25;99995.41;;;2.98;100.00
76627;BME280;65519;53.230;10.390;2024-02-26T00:29:50;99997.66;;;2.78;100.00
76627;BME280;65519;53.230;10.390;2024-02-26T00:32:16;100001.25;;;2.83;100.00
76627;BME280;65519;53.230;10.390;2024-02-26T00:34:41;100001.38;;;2.88;100.00
76627;BME280;65519;53.230;10.390;2024-02-26T00:37:07;99998.69;;;2.88;100.00
76627;BME280;65519;53.230;10.390;2024-02-26T00:39:32;99993.91;;;2.79;100.00
76627;BME280;65519;53.230;10.390;2024-02-26T00:41:58;99988.31;;;2.80;100.00
76627;BME280;65519;53.230;10.390;2024-02-26T00:44:23;99997.28;;;2.74;100.00
76627;BME280;65519;53.230;10.390;2024-02-26T00:46:49;99998.25;;;2.68;100.00
76627;BME280;65519;53.230;10.390;2024-02-26T00:49:14;99992.03;;;2.68;100.00
76627;BME280;65519;53.230;10.390;2024-02-26T00:51:39;99992.13;;;2.61;100.00
76627;BME280;65519;53.230;10.390;2024-02-26T00:54:05;99993.31;;;2.77;100.00
76627;BME280;65519;53.230;10.390;2024-02-26T00:56:30;99989.00;;;2.64;100.00
76627;BME280;65519;53.230;10.390;2024-02-26T00:58:56;100003.03;;;2.66;100.00
76627;BME280;65519;53.230;10.390;2024-02-26T01:01:21;100002.22;;;2.54;100.00
76627;BME280;65519;53.230;10.390;2024-02-26T01:03:47;100005.84;;;2.60;100.00
76627;BME280;65519;53.230;10.390;2024-02-26T01:06:12;100001.03;;;2.50;100.00
76627;BME280;65519;53.230;10.390;2024-02-26T01:08:38;100001.63;;;2.52;100.00
76627;BME280;65519;53.230;10.390;2024-02-26T01:11:04;100004.09;;;2.53;100.00
76627;BME280;65519;53.230;10.390;2024-02-26T01:13:30;100006.06;;;2.35;100.00
76627;BME280;65519;53.230;10.390;2024-02-26T01:15:55;100006.53;;;2.55;100.00
76627;BME280;65519;53.230;10.390;2024-02-26T01:18:21;100006.53;;;2.55;100.00
76627;BME280;65519;53.230;10.390;2024-02-26T01:20:47;100004.31;;;2.52;100.00
76627;BME280;65519;53.230;10.390;2024-02-26T01:23:13;100007.34;;;2.44;100.00
76627;BME280;65519;53.230;10.390;2024-02-26T01:25:38;100006.19;;;2.63;100.00
76627;BME280;65519;53.230;10.390;2024-02-26T01:28:05;99999.38;;;2.49;100.00
76627;BME280;65519;53.230;10.390;2024-02-26T01:30:31;100002.06;;;2.49;100.00
76627;BME280;65519;53.230;10.390;2024-02-26T01:32:56;100001.38;;;2.42;100.00
76627;BME280;65519;53.230;10.390;2024-02-26T01:35:21;100001.38;;;2.30;100.00
76627;BME280;65519;53.230;10.390;2024-02-26T01:37:47;99999.63;;;2.24;100.00
76627;BME280;65519;53.230;10.390;2024-02-26T01:40:12;100004.28;;;2.40;100.00
76627;BME280;65519;53.230;10.390;2024-02-26T01:42:43;99988.75;;;2.31;100.00
76627;BME280;65519;53.230;10.390;2024-02-26T01:45:14;99993.06;;;2.32;100.00
76627;BME280;65519;53.230;10.390;2024-02-26T01:47:41;99994.56;;;2.28;100.00
76627;BME280;65519;53.230;10.390;2024-02-26T01:50:07;99996.91;;;2.12;100.00
76627;BME280;65519;53.230;10.390;2024-02-26T01:52:34;100001.94;;;2.20;100.00
76627;BME280;65519;53.230;10.390;2024-02-26T01:54:59;100008.03;;;2.16;100.00
76627;BME280;65519;53.230;10.390;2024-02-26T01:57:27;100005.34;;;2.16;100.00
76627;BME280;65519;53.230;10.390;2024-02-26T01:59:53;100002.75;;;2.21;100.00
76627;BME280;65519;53.230;10.390;2024-02-26T02:02:19;100005.00;;;2.24;100.00
76627;BME280;65519;53.230;10.390;2024-02-26T02:04:45;100015.97;;;2.23;100.00
76627;BME280;65519;53.230;10.390;2024-02-26T02:07:11;100009.09;;;2.27;100.00
76627;BME280;65519;53.230;10.390;2024-02-26T02:09:38;100015.59;;;2.19;100.00
76627;BME280;65519;53.230;10.390;2024-02-26T02:12:04;99997.09;;;1.99;100.00
76627;BME280;65519;53.230;10.390;2024-02-26T02:14:29;100015.72;;;2.12;100.00
76627;BME280;65519;53.230;10.390;2024-02-26T02:16:55;100012.34;;;2.29;100.00
76627;BME280;65519;53.230;10.390;2024-02-26T02:19:21;100008.28;;;2.26;100.00
76627;BME280;65519;53.230;10.390;2024-02-26T02:21:46;100015.28;;;2.15;100.00
76627;BME280;65519;53.230;10.390;2024-02-26T02:24:12;100017.22;;;2.08;100.00
76627;BME280;65519;53.230;10.390;2024-02-26T02:26:37;100022.72;;;2.02;100.00
76627;BME280;65519;53.230;10.390;2024-02-26T02:29:04;100013.13;;;1.94;100.00
76627;BME280;65519;53.230;10.390;2024-02-26T02:31:29;100013.41;;;1.86;100.00
76627;BME280;65519;53.230;10.390;2024-02-26T02:33:55;100014.41;;;1.62;100.00
76627;BME280;65519;53.230;10.390;2024-02-26T02:36:21;100015.97;;;1.81;100.00
76627;BME280;65519;53.230;10.390;2024-02-26T02:38:50;100011.91;;;1.90;100.00
76627;BME280;65519;53.230;10.390;2024-02-26T02:41:16;100015.00;;;2.05;100.00
76627;BME280;65519;53.230;10.390;2024-02-26T02:43:42;100005.63;;;1.96;100.00
76627;BME280;65519;53.230;10.390;2024-02-26T02:46:07;100017.28;;;1.90;100.00
76627;BME280;65519;53.230;10.390;2024-02-26T02:48:33;100013.03;;;1.71;100.00
76627;BME280;65519;53.230;10.390;2024-02-26T02:50:58;100014.28;;;1.68;100.00
76627;BME280;65519;53.230;10.390;2024-02-26T02:53:24;100017.75;;;1.87;100.00
76627;BME280;65519;53.230;10.390;2024-02-26T02:55:49;100018.41;;;1.71;100.00
76627;BME280;65519;53.230;10.390;2024-02-26T02:58:15;100023.38;;;1.37;100.00
76627;BME280;65519;53.230;10.390;2024-02-26T03:00:40;100017.84;;;1.32;100.00
76627;BME280;65519;53.230;10.390;2024-02-26T03:03:05;100024.72;;;1.28;100.00
76627;BME280;65519;53.230;10.390;2024-02-26T03:05:31;100021.72;;;1.36;100.00
76627;BME280;65519;53.230;10.390;2024-02-26T03:07:57;100025.16;;;1.25;100.00
76627;BME280;65519;53.230;10.390;2024-02-26T03:10:23;100024.78;;;1.22;100.00
76627;BME280;65519;53.230;10.390;2024-02-26T03:12:49;100021.34;;;1.33;100.00
76627;BME280;65519;53.230;10.390;2024-02-26T03:15:15;100031.06;;;1.34;100.00
76627;BME280;65519;53.230;10.390;2024-02-26T03:17:41;100042.09;;;1.07;100.00
76627;BME280;65519;53.230;10.390;2024-02-26T03:20:08;100041.94;;;1.21;100.00
76627;BME280;65519;53.230;10.390;2024-02-26T03:22:34;100048.44;;;1.13;100.00
76627;BME280;65519;53.230;10.390;2024-02-26T03:25:00;100041.72;;;1.40;100.00
76627;BME280;65519;53.230;10.390;2024-02-26T03:27:26;100032.53;;;1.48;100.00
76627;BME280;65519;53.230;10.390;2024-02-26T03:29:51;100048.97;;;1.40;100.00
76627;BME280;65519;53.230;10.390;2024-02-26T03:32:18;100049.19;;;1.38;100.00
76627;BME280;65519;53.230;10.390;2024-02-26T03:34:43;100037.69;;;1.50;100.00
76627;BME280;65519;53.230;10.390;2024-02-26T03:37:09;100048.69;;;1.78;100.00
76627;BME280;65519;53.230;10.390;2024-02-26T03:39:36;100050.34;;;1.42;100.00
76627;BME280;65519;53.230;10.390;2024-02-26T03:42:02;100051.41;;;1.41;100.00
76627;BME280;65519;53.230;10.390;2024-02-26T03:44:27;100058.34;;;1.31;100.00
76627;BME280;65519;53.230;10.390;2024-02-26T03:46:53;100062.16;;;1.05;100.00
76627;BME280;65519;53.230;10.390;2024-02-26T03:49:18;100057.13;;;1.08;100.00
76627;BME280;65519;53.230;10.390;2024-02-26T03:51:44;100060.66;;;1.09;100.00
76627;BME280;65519;53.230;10.390;2024-02-26T03:54:09;100072.97;;;1.35;100.00
76627;BME280;65519;53.230;10.390;2024-02-26T03:56:35;100073.72;;;1.24;100.00
76627;BME280;65519;53.230;10.390;2024-02-26T03:59:00;100085.78;;;1.33;100.00
76627;BME280;65519;53.230;10.390;2024-02-26T04:01:27;100083.06;;;1.39;100.00
76627;BME280;65519;53.230;10.390;2024-02-26T04:03:53;100083.81;;;1.28;100.00
76627;BME280;65519;53.230;10.390;2024-02-26T04:06:19;100085.44;;;1.29;100.00
76627;BME280;65519;53.230;10.390;2024-02-26T04:08:46;100087.97;;;1.24;100.00
76627;BME280;65519;53.230;10.390;2024-02-26T04:11:12;100092.91;;;1.27;100.00
76627;BME280;65519;53.230;10.390;2024-02-26T04:13:38;100096.63;;;1.26;100.00
76627;BME280;65519;53.230;10.390;2024-02-26T04:16:05;100105.53;;;1.20;100.00
76627;BME280;65519;53.230;10.390;2024-02-26T04:18:31;100104.75;;;1.38;100.00
76627;BME280;65519;53.230;10.390;2024-02-26T04:20:56;100102.44;;;1.41;100.00
76627;BME280;65519;53.230;10.390;2024-02-26T04:23:22;100100.22;;;1.38;100.00
76627;BME280;65519;53.230;10.390;2024-02-26T04:25:47;100104.81;;;1.31;100.00
76627;BME280;65519;53.230;10.390;2024-02-26T04:28:13;100112.03;;;1.31;100.00
76627;BME280;65519;53.230;10.390;2024-02-26T04:30:39;100107.34;;;1.26;100.00
76627;BME280;65519;53.230;10.390;2024-02-26T04:33:04;100108.19;;;1.27;100.00
76627;BME280;65519;53.230;10.390;2024-02-26T04:35:30;100121.81;;;1.25;100.00
76627;BME280;65519;53.230;10.390;2024-02-26T04:37:56;100118.25;;;1.31;100.00
76627;BME280;65519;53.230;10.390;2024-02-26T04:40:21;100116.25;;;1.27;100.00
76627;BME280;65519;53.230;10.390;2024-02-26T04:42:47;100121.22;;;1.23;100.00
76627;BME280;65519;53.230;10.390;2024-02-26T04:45:12;100133.13;;;1.09;100.00
76627;BME280;65519;53.230;10.390;2024-02-26T04:47:38;100115.63;;;1.06;100.00
76627;BME280;65519;53.230;10.390;2024-02-26T04:50:03;100135.53;;;1.17;100.00
76627;BME280;65519;53.230;10.390;2024-02-26T04:52:29;100126.28;;;1.31;100.00
76627;BME280;65519;53.230;10.390;2024-02-26T04:54:55;100134.81;;;1.46;100.00
76627;BME280;65519;53.230;10.390;2024-02-26T04:57:21;100150.72;;;1.30;100.00
76627;BME280;65519;53.230;10.390;2024-02-26T04:59:46;100141.34;;;1.14;100.00
76627;BME280;65519;53.230;10.390;2024-02-26T05:02:12;100144.03;;;1.32;100.00
76627;BME280;65519;53.230;10.390;2024-02-26T05:04:38;100135.84;;;1.45;100.00
76627;BME280;65519;53.230;10.390;2024-02-26T05:07:03;100134.72;;;1.53;100.00
76627;BME280;65519;53.230;10.390;2024-02-26T05:09:29;100141.84;;;1.48;100.00
76627;BME280;65519;53.230;10.390;2024-02-26T05:11:54;100133.78;;;1.29;100.00
76627;BME280;65519;53.230;10.390;2024-02-26T05:14:20;100147.78;;;1.31;100.00
76627;BME280;65519;53.230;10.390;2024-02-26T05:16:46;100150.47;;;1.31;100.00
76627;BME280;65519;53.230;10.390;2024-02-26T05:19:12;100156.06;;;1.30;100.00
76627;BME280;65519;53.230;10.390;2024-02-26T05:21:37;100151.69;;;1.54;100.00
76627;BME280;65519;53.230;10.390;2024-02-26T05:24:03;100149.81;;;1.54;100.00
76627;BME280;65519;53.230;10.390;2024-02-26T05:26:29;100166.56;;;1.31;100.00
76627;BME280;65519;53.230;10.390;2024-02-26T05:28:54;100166.31;;;1.39;100.00
76627;BME280;65519;53.230;10.390;2024-02-26T05:31:25;100164.19;;;1.41;100.00
76627;BME280;65519;53.230;10.390;2024-02-26T05:33:50;100163.00;;;1.37;100.00
76627;BME280;65519;53.230;10.390;2024-02-26T05:36:20;100156.22;;;1.53;100.00
76627;BME280;65519;53.230;10.390;2024-02-26T05:38:47;100160.25;;;1.44;100.00
76627;BME280;65519;53.230;10.390;2024-02-26T05:41:15;100161.69;;;1.46;100.00
76627;BME280;65519;53.230;10.390;2024-02-26T05:43:40;100158.81;;;1.41;100.00
76627;BME280;65519;53.230;10.390;2024-02-26T05:46:06;100167.16;;;1.33;100.00
76627;BME280;65519;53.230;10.390;2024-02-26T05:48:31;100159.28;;;1.38;100.00
76627;BME280;65519;53.230;10.390;2024-02-26T05:50:57;100173.81;;;1.31;100.00
76627;BME280;65519;53.230;10.390;2024-02-26T05:53:22;100169.00;;;1.39;100.00
76627;BME280;65519;53.230;10.390;2024-02-26T05:55:48;100172.97;;;1.30;100.00
76627;BME280;65519;53.230;10.390;2024-02-26T05:58:13;100178.22;;;1.43;100.00
76627;BME280;65519;53.230;10.390;2024-02-26T06:00:39;100171.06;;;1.56;100.00
76627;BME280;65519;53.230;10.390;2024-02-26T06:03:05;100175.09;;;1.65;100.00
76627;BME280;65519;53.230;10.390;2024-02-26T06:05:31;100176.06;;;1.52;100.00
76627;BME280;65519;53.230;10.390;2024-02-26T06:07:56;100179.09;;;1.62;100.00
76627;BME280;65519;53.230;10.390;2024-02-26T06:10:22;100180.94;;;1.62;100.00
76627;BME280;65519;53.230;10.390;2024-02-26T06:12:47;100193.59;;;1.55;100.00
76627;BME280;65519;53.230;10.390;2024-02-26T06:15:13;100186.28;;;1.43;100.00
76627;BME280;65519;53.230;10.390;2024-02-26T06:17:38;100191.00;;;1.48;100.00
76627;BME280;65519;53.230;10.390;2024-02-26T06:20:04;100202.28;;;1.57;100.00
76627;BME280;65519;53.230;10.390;2024-02-26T06:22:32;100196.06;;;1.56;100.00
76627;BME280;65519;53.230;10.390;2024-02-26T06:24:58;100189.28;;;1.54;100.00
76627;BME280;65519;53.230;10.390;2024-02-26T06:27:23;100205.34;;;1.60;100.00
76627;BME280;65519;53.230;10.390;2024-02-26T06:29:49;100199.28;;;1.65;100.00
76627;BME280;65519;53.230;10.390;2024-02-26T06:32:15;100196.25;;;1.61;100.00
76627;BME280;65519;53.230;10.390;2024-02-26T06:34:40;100211.97;;;1.58;100.00
76627;BME280;65519;53.230;10.390;2024-02-26T06:37:08;100202.50;;;1.73;100.00
76627;BME280;65519;53.230;10.390;2024-02-26T06:39:33;100214.97;;;1.68;100.00
76627;BME280;65519;53.230;10.390;2024-02-26T06:41:59;100204.13;;;1.74;100.00
76627;BME280;65519;53.230;10.390;2024-02-26T06:44:27;100203.25;;;1.80;100.00
76627;BME280;65519;53.230;10.390;2024-02-26T06:47:00;100200.59;;;1.80;100.00
76627;BME280;65519;53.230;10.390;2024-02-26T06:49:27;100205.72;;;1.82;100.00
76627;BME280;65519;53.230;10.390;2024-02-26T06:51:52;100205.13;;;1.80;100.00
76627;BME280;65519;53.230;10.390;2024-02-26T06:54:18;100205.13;;;1.80;100.00
76627;BME280;65519;53.230;10.390;2024-02-26T06:56:43;100211.94;;;1.82;100.00
76627;BME280;65519;53.230;10.390;2024-02-26T06:59:09;100220.06;;;1.94;100.00
76627;BME280;65519;53.230;10.390;2024-02-26T07:01:34;100214.91;;;1.93;100.00
76627;BME280;65519;53.230;10.390;2024-02-26T07:04:00;100227.31;;;1.94;100.00
76627;BME280;65519;53.230;10.390;2024-02-26T07:06:27;100227.84;;;2.02;100.00
76627;BME280;65519;53.230;10.390;2024-02-26T07:08:52;100225.28;;;2.07;100.00
76627;BME280;65519;53.230;10.390;2024-02-26T07:11:18;100233.28;;;2.14;100.00
76627;BME280;65519;53.230;10.390;2024-02-26T07:13:45;100236.31;;;2.17;100.00
76627;BME280;65519;53.230;10.390;2024-02-26T07:16:11;100240.59;;;2.25;100.00
76627;BME280;65519;53.230;10.390;2024-02-26T07:18:39;100247.09;;;2.36;100.00
76627;BME280;65519;53.230;10.390;2024-02-26T07:21:05;100240.94;;;2.29;100.00
76627;BME280;65519;53.230;10.390;2024-02-26T07:23:31;100248.88;;;2.24;100.00
76627;BME280;65519;53.230;10.390;2024-02-26T07:25:57;100239.38;;;2.21;100.00
76627;BME280;65519;53.230;10.390;2024-02-26T07:28:23;100253.94;;;2.32;100.00
76627;BME280;65519;53.230;10.390;2024-02-26T07:30:49;100252.75;;;2.28;100.00
76627;BME280;65519;53.230;10.390;2024-02-26T07:33:14;100257.69;;;2.31;100.00
76627;BME280;65519;53.230;10.390;2024-02-26T07:35:40;100269.88;;;2.33;100.00
76627;BME280;65519;53.230;10.390;2024-02-26T07:38:05;100259.78;;;2.47;100.00
76627;BME280;65519;53.230;10.390;2024-02-26T07:40:31;100271.69;;;2.51;100.00
76627;BME280;65519;53.230;10.390;2024-02-26T07:42:56;100275.09;;;2.46;100.00
76627;BME280;65519;53.230;10.390;2024-02-26T07:45:22;100274.09;;;2.59;100.00
76627;BME280;65519;53.230;10.390;2024-02-26T07:47:48;100267.19;;;2.63;100.00
76627;BME280;65519;53.230;10.390;2024-02-26T07:50:14;100288.09;;;2.79;100.00
76627;BME280;65519;53.230;10.390;2024-02-26T07:52:39;100288.69;;;2.81;100.00
76627;BME280;65519;53.230;10.390;2024-02-26T07:55:05;100291.69;;;2.73;100.00
76627;BME280;65519;53.230;10.390;2024-02-26T07:57:32;100284.03;;;2.59;100.00
76627;BME280;65519;53.230;10.390;2024-02-26T07:59:59;100297.72;;;2.87;100.00
76627;BME280;65519;53.230;10.390;2024-02-26T08:02:24;100294.38;;;2.91;100.00
76627;BME280;65519;53.230;10.390;2024-02-26T08:04:50;100300.56;;;2.92;100.00
76627;BME280;65519;53.230;10.390;2024-02-26T08:07:15;100297.63;;;2.93;100.00
76627;BME280;65519;53.230;10.390;2024-02-26T08:09:41;100312.06;;;2.99;100.00
76627;BME280;65519;53.230;10.390;2024-02-26T08:12:07;100314.75;;;2.99;100.00
76627;BME280;65519;53.230;10.390;2024-02-26T08:14:32;100321.44;;;3.08;100.00
76627;BME280;65519;53.230;10.390;2024-02-26T08:16:58;100313.78;;;2.93;100.00
76627;BME280;65519;53.230;10.390;2024-02-26T08:19:24;100317.16;;;2.89;100.00
76627;BME280;65519;53.230;10.390;2024-02-26T08:21:49;100316.72;;;2.92;100.00
76627;BME280;65519;53.230;10.390;2024-02-26T08:24:15;100318.03;;;3.01;100.00
76627;BME280;65519;53.230;10.390;2024-02-26T08:26:40;100320.47;;;2.91;100.00
76627;BME280;65519;53.230;10.390;2024-02-26T08:29:06;100326.56;;;2.98;100.00
76627;BME280;65519;53.230;10.390;2024-02-26T08:31:31;100319.25;;;3.17;100.00
76627;BME280;65519;53.230;10.390;2024-02-26T08:33:57;100314.00;;;3.22;100.00
76627;BME280;65519;53.230;10.390;2024-02-26T08:36:23;100315.72;;;3.16;100.00
76627;BME280;65519;53.230;10.390;2024-02-26T08:38:49;100312.47;;;3.26;100.00
76627;BME280;65519;53.230;10.390;2024-02-26T08:41:14;100317.63;;;3.27;100.00
76627;BME280;65519;53.230;10.390;2024-02-26T08:43:40;100320.34;;;3.27;100.00
76627;BME280;65519;53.230;10.390;2024-02-26T08:46:08;100317.56;;;3.34;100.00
76627;BME280;65519;53.230;10.390;2024-02-26T08:48:34;100310.38;;;3.28;100.00
76627;BME280;65519;53.230;10.390;2024-02-26T08:51:00;100330.53;;;3.37;100.00
76627;BME280;65519;53.230;10.390;2024-02-26T08:53:25;100327.84;;;3.37;100.00
76627;BME280;65519;53.230;10.390;2024-02-26T08:55:52;100319.69;;;3.44;100.00
76627;BME280;65519;53.230;10.390;2024-02-26T08:58:17;100322.16;;;3.45;100.00
76627;BME280;65519;53.230;10.390;2024-02-26T09:00:43;100319.47;;;3.45;100.00
76627;BME280;65519;53.230;10.390;2024-02-26T09:03:08;100328.25;;;3.52;100.00
76627;BME280;65519;53.230;10.390;2024-02-26T09:05:34;100319.91;;;3.42;100.00
76627;BME280;65519;53.230;10.390;2024-02-26T09:08:00;100328.69;;;3.49;100.00
76627;BME280;65519;53.230;10.390;2024-02-26T09:10:25;100330.81;;;3.47;100.00
76627;BME280;65519;53.230;10.390;2024-02-26T09:12:51;100325.91;;;3.44;100.00
76627;BME280;65519;53.230;10.390;2024-02-26T09:15:16;100332.13;;;3.56;100.00
76627;BME280;65519;53.230;10.390;2024-02-26T09:17:42;100335.97;;;3.60;100.00
76627;BME280;65519;53.230;10.390;2024-02-26T09:20:07;100337.41;;;3.63;100.00
76627;BME280;65519;53.230;10.390;2024-02-26T09:22:34;100339.28;;;3.62;100.00
76627;BME280;65519;53.230;10.390;2024-02-26T09:25:00;100341.38;;;3.60;100.00
76627;BME280;65519;53.230;10.390;2024-02-26T09:27:25;100349.00;;;3.63;100.00
76627;BME280;65519;53.230;10.390;2024-02-26T09:29:51;100346.56;;;3.74;100.00
76627;BME280;65519;53.230;10.390;2024-02-26T09:32:16;100344.47;;;3.76;100.00
76627;BME280;65519;53.230;10.390;2024-02-26T09:34:43;100351.50;;;3.77;100.00
76627;BME280;65519;53.230;10.390;2024-02-26T09:37:08;100346.56;;;3.74;100.00
76627;BME280;65519;53.230;10.390;2024-02-26T09:39:34;100355.34;;;3.81;100.00
76627;BME280;65519;53.230;10.390;2024-02-26T09:42:01;100353.38;;;3.88;100.00
76627;BME280;65519;53.230;10.390;2024-02-26T09:44:29;100357.38;;;3.97;100.00
76627;BME280;65519;53.230;10.390;2024-02-26T09:46:56;100358.88;;;3.93;100.00
76627;BME280;65519;53.230;10.390;2024-02-26T09:49:23;100359.00;;;3.98;100.00
76627;BME280;65519;53.230;10.390;2024-02-26T09:51:49;100365.94;;;4.06;100.00
76627;BME280;65519;53.230;10.390;2024-02-26T09:54:17;100363.00;;;4.07;100.00
76627;BME280;65519;53.230;10.390;2024-02-26T09:56:46;100373.31;;;4.10;100.00
76627;BME280;65519;53.230;10.390;2024-02-26T09:59:16;100367.81;;;4.17;100.00
76627;BME280;65519;53.230;10.390;2024-02-26T10:01:44;100379.50;;;4.22;100.00
76627;BME280;65519;53.230;10.390;2024-02-26T10:04:09;100375.06;;;4.28;100.00
76627;BME280;65519;53.230;10.390;2024-02-26T10:06:36;100380.09;;;4.36;100.00
76627;BME280;65519;53.230;10.390;2024-02-26T10:09:02;100387.38;;;4.47;100.00
76627;BME280;65519;53.230;10.390;2024-02-26T10:11:31;100387.13;;;4.49;100.00
76627;BME280;65519;53.230;10.390;2024-02-26T10:13:57;100382.44;;;4.56;100.00
76627;BME280;65519;53.230;10.390;2024-02-26T10:16:22;100378.44;;;4.58;100.00
76627;BME280;65519;53.230;10.390;2024-02-26T10:18:52;100386.06;;;4.61;100.00
76627;BME280;65519;53.230;10.390;2024-02-26T10:21:20;100391.91;;;4.70;100.00
76627;BME280;65519;53.230;10.390;2024-02-26T10:23:46;100398.47;;;4.86;100.00
76627;BME280;65519;53.230;10.390;2024-02-26T10:26:13;100396.25;;;4.83;100.00
76627;BME280;65519;53.230;10.390;2024-02-26T10:28:39;100397.34;;;4.98;100.00
76627;BME280;65519;53.230;10.390;2024-02-26T10:31:05;100399.78;;;5.11;100.00
76627;BME280;65519;53.230;10.390;2024-02-26T10:33:41;100406.44;;;5.21;100.00
76627;BME280;65519;53.230;10.390;2024-02-26T10:36:08;100400.28;;;5.37;100.00
76627;BME280;65519;53.230;10.390;2024-02-26T10:38:37;100398.16;;;5.39;100.00
76627;BME280;65519;53.230;10.390;2024-02-26T10:41:06;100401.47;;;5.58;100.00
76627;BME280;65519;53.230;10.390;2024-02-26T10:43:32;100401.50;;;5.74;100.00
76627;BME280;65519;53.230;10.390;2024-02-26T10:45:58;100404.75;;;5.88;100.00
76627;BME280;65519;53.230;10.390;2024-02-26T10:48:23;100404.84;;;5.93;100.00
76627;BME280;65519;53.230;10.390;2024-02-26T10:50:49;100404.66;;;6.00;100.00
76627;BME280;65519;53.230;10.390;2024-02-26T10:53:22;100408.84;;;6.24;100.00
76627;BME280;65519;53.230;10.390;2024-02-26T10:56:02;100409.56;;;6.36;100.00
76627;BME280;65519;53.230;10.390;2024-02-26T10:58:28;100407.59;;;6.48;100.00
76627;BME280;65519;53.230;10.390;2024-02-26T11:00:56;100406.91;;;6.58;100.00
76627;BME280;65519;53.230;10.390;2024-02-26T11:03:22;100411.66;;;6.68;100.00
76627;BME280;65519;53.230;10.390;2024-02-26T11:05:49;100412.72;;;6.88;100.00
76627;BME280;65519;53.230;10.390;2024-02-26T11:08:16;100410.72;;;7.01;100.00
76627;BME280;65519;53.230;10.390;2024-02-26T11:10:43;100409.81;;;7.17;100.00
76627;BME280;65519;53.230;10.390;2024-02-26T11:13:10;100407.28;;;7.32;100.00
76627;BME280;65519;53.230;10.390;2024-02-26T11:15:38;100405.00;;;7.46;100.00
76627;BME280;65519;53.230;10.390;2024-02-26T11:18:05;100403.16;;;7.51;100.00
76627;BME280;65519;53.230;10.390;2024-02-26T11:20:32;100409.13;;;7.53;100.00
76627;BME280;65519;53.230;10.390;2024-02-26T11:22:58;100406.78;;;7.62;100.00
76627;BME280;65519;53.230;10.390;2024-02-26T11:25:24;100409.56;;;7.67;100.00
76627;BME280;65519;53.230;10.390;2024-02-26T11:28:00;100402.53;;;7.71;100.00
76627;BME280;65519;53.230;10.390;2024-02-26T11:30:31;100409.94;;;7.81;100.00
76627;BME280;65519;53.230;10.390;2024-02-26T11:32:57;100407.88;;;7.93;100.00
76627;BME280;65519;53.230;10.390;2024-02-26T11:35:23;100407.19;;;8.07;100.00
76627;BME280;65519;53.230;10.390;2024-02-26T11:37:56;100402.59;;;8.13;100.00
76627;BME280;65519;53.230;10.390;2024-02-26T11:40:23;100406.47;;;8.22;100.00
76627;BME280;65519;53.230;10.390;2024-02-26T11:42:50;100406.22;;;8.24;100.00
76627;BME280;65519;53.230;10.390;2024-02-26T11:50:39;100403.41;;;8.40;100.00
76627;BME280;65519;53.230;10.390;2024-02-26T11:53:24;100407.50;;;8.43;100.00
76627;BME280;65519;53.230;10.390;2024-02-26T11:56:13;100408.53;;;8.37;100.00
76627;BME280;65519;53.230;10.390;2024-02-26T11:58:45;100410.22;;;8.48;100.00
76627;BME280;65519;53.230;10.390;2024-02-26T12:04:27;100411.41;;;8.62;100.00
76627;BME280;65519;53.230;10.390;2024-02-26T12:07:00;100409.22;;;8.59;100.00
76627;BME280;65519;53.230;10.390;2024-02-26T12:09:40;100414.53;;;8.91;100.00
76627;BME280;65519;53.230;10.390;2024-02-26T12:12:11;100413.97;;;8.89;100.00
76627;BME280;65519;53.230;10.390;2024-02-26T12:14:40;100418.94;;;9.02;100.00
76627;BME280;65519;53.230;10.390;2024-02-26T12:17:22;100417.56;;;9.00;100.00
76627;BME280;65519;53.230;10.390;2024-02-26T12:19:48;100427.88;;;8.98;100.00
76627;BME280;65519;53.230;10.390;2024-02-26T12:22:14;100421.94;;;9.01;100.00
76627;BME280;65519;53.230;10.390;2024-02-26T12:24:41;100421.09;;;8.95;100.00
76627;BME280;65519;53.230;10.390;2024-02-26T12:27:06;100430.34;;;8.99;100.00
76627;BME280;65519;53.230;10.390;2024-02-26T12:29:32;100433.09;;;9.09;100.00
76627;BME280;65519;53.230;10.390;2024-02-26T12:31:57;100432.34;;;9.19;100.00
76627;BME280;65519;53.230;10.390;2024-02-26T12:34:23;100437.53;;;9.31;100.00
76627;BME280;65519;53.230;10.390;2024-02-26T12:36:49;100433.97;;;9.20;100.00
76627;BME280;65519;53.230;10.390;2024-02-26T12:39:14;100434.81;;;9.26;100.00
76627;BME280;65519;53.230;10.390;2024-02-26T12:41:40;100435.56;;;9.11;100.00
76627;BME280;65519;53.230;10.390;2024-02-26T12:44:07;100445.94;;;9.19;100.00